Cristino Castro, Brazil
Current Conditions -  °F | °C
As of 5:00 PM on Sunday 23 Nov 2014 (Local Time) from SBPL Reporting Station
Broken Clouds Broken Clouds  
Wind Chill: 91°   Ceiling: 7000
Heat Index: 94°   Visibility: 6mi
Dew Point: 66°   Wind: 6mph
Humidity: 43%   Direction: 150°SSE
Pressure: 29.85"   Gusts: NA
Location:  8.82°S, 44.22°W
Report Text: SBPL 232000Z 15005KT 9999 FEW023 BKN070 33/19 Q1011
Loading
Personal Weather Stations






























Interactive Weather Map New forecast layout! Learn more

10-Day Weather Forecast

Advertisements
Track Severe Weather on mobile